createdAt,value
2023-02-01T00:00:54.658Z,97818.16
2023-02-01T00:01:57.659Z,97813.75
2023-02-01T00:03:00.606Z,97814.56
2023-02-01T00:04:03.845Z,97803.25
2023-02-01T00:05:06.568Z,97810.97
2023-02-01T00:06:09.536Z,97809.13
2023-02-01T00:07:31.266Z,97807.50
2023-02-01T00:08:34.092Z,97811.72
2023-02-01T00:09:36.008Z,97807.38
2023-02-01T00:10:38.780Z,97821.78
2023-02-01T00:11:40.877Z,97824.19
2023-02-01T00:12:43.713Z,97825.13
2023-02-01T00:13:45.467Z,97813.78
2023-02-01T00:14:49.371Z,97820.63
2023-02-01T00:15:51.152Z,97803.41
2023-02-01T00:16:54.050Z,97812.03
2023-02-01T00:17:56.260Z,97808.63
2023-02-01T00:19:01.192Z,97808.56
2023-02-01T00:20:04.067Z,97818.94
2023-02-01T00:21:07.226Z,97805.25
2023-02-01T00:22:09.001Z,97810.50
2023-02-01T00:23:13.437Z,97812.25
2023-02-01T00:24:16.205Z,97817.28
2023-02-01T00:25:18.062Z,97802.78
2023-02-01T00:26:22.424Z,97812.25
2023-02-01T00:27:24.281Z,97813.19
2023-02-01T00:28:27.088Z,97807.28
2023-02-01T00:29:28.860Z,97805.63
2023-02-01T00:30:31.937Z,97806.56
2023-02-01T00:31:33.959Z,97806.56
2023-02-01T00:32:37.377Z,97804.91
2023-02-01T00:33:39.666Z,97803.16
2023-02-01T00:34:42.489Z,97798.84
2023-02-01T00:35:44.299Z,97791.94
2023-02-01T00:36:47.273Z,97792.75
2023-02-01T00:37:49.071Z,97791.94
2023-02-01T00:38:53.295Z,97797.09
2023-02-01T00:39:56.748Z,97798.84
2023-02-01T00:41:04.957Z,97801.31
2023-02-01T00:42:06.759Z,97800.50
2023-02-01T00:43:09.874Z,97806.34
2023-02-01T00:44:12.044Z,97803.69
2023-02-01T00:45:14.778Z,97802.78
2023-02-01T00:46:18.739Z,97806.16
2023-02-01T00:47:21.530Z,97811.22
2023-02-01T00:48:23.438Z,97812.03
2023-02-01T00:49:26.343Z,97824.72
2023-02-01T00:50:28.712Z,97831.53
2023-02-01T00:51:32.130Z,97829.69
2023-02-01T00:52:34.018Z,97836.38
2023-02-01T00:53:37.269Z,97839.66
2023-02-01T00:54:41.442Z,97836.09
2023-02-01T00:55:46.213Z,97841.97
2023-02-01T00:56:49.017Z,97854.84
2023-02-01T00:57:50.961Z,97849.59
2023-02-01T00:58:53.873Z,97851.25
2023-02-01T00:59:56.143Z,97841.13
2023-02-01T01:01:06.866Z,97863.47
2023-02-01T01:02:10.175Z,97851.72
2023-02-01T01:03:19.448Z,97866.44
2023-02-01T01:04:21.396Z,97858.38
2023-02-01T01:05:26.055Z,97852.50
2023-02-01T01:06:31.522Z,97868.78
2023-02-01T01:07:34.370Z,97867.22
2023-02-01T01:08:37.120Z,97881.22
2023-02-01T01:09:41.425Z,97888.19
2023-02-01T01:10:44.156Z,97879.75
2023-02-01T01:11:47.377Z,97873.94
2023-02-01T01:12:49.164Z,97852.91
2023-02-01T01:13:53.259Z,97862.56
2023-02-01T01:14:55.526Z,97859.44
2023-02-01T01:15:58.379Z,97844.28
2023-02-01T01:17:01.208Z,97853.03
2023-02-01T01:18:03.032Z,97857.53
2023-02-01T01:19:06.349Z,97850.03
2023-02-01T01:20:09.528Z,97843.25
2023-02-01T01:21:15.273Z,97840.84
2023-02-01T01:22:17.070Z,97822.84
2023-02-01T01:23:19.834Z,97835.69
2023-02-01T01:24:21.800Z,97837.44
2023-02-01T01:25:26.068Z,97830.56
2023-02-01T01:26:30.625Z,97832.94
2023-02-01T01:27:32.680Z,97832.94
2023-02-01T01:28:35.476Z,97841.50
2023-02-01T01:29:37.436Z,97833.78
2023-02-01T01:30:40.551Z,97831.09
2023-02-01T01:31:43.760Z,97838.72
2023-02-01T01:32:45.844Z,97838.63
2023-02-01T01:33:52.813Z,97824.91
2023-02-01T01:34:54.595Z,97824.75
2023-02-01T01:35:57.448Z,97827.97
2023-02-01T01:37:00.468Z,97842.38
2023-02-01T01:38:02.303Z,97837.22
2023-02-01T01:39:05.085Z,97847.50
2023-02-01T01:40:08.945Z,97836.28
2023-02-01T01:41:15.960Z,97830.31
2023-02-01T01:42:18.825Z,97850.84
2023-02-01T01:43:24.219Z,97855.06
2023-02-01T01:44:57.600Z,97849.09
2023-02-01T01:46:00.769Z,97848.25
2023-02-01T01:47:04.346Z,97853.59
2023-02-01T01:48:11.048Z,97848.34
2023-02-01T01:49:16.839Z,97846.50
2023-02-01T01:50:21.979Z,97842.09
2023-02-01T01:51:25.981Z,97852.38
2023-02-01T01:52:28.862Z,97850.63
2023-02-01T01:53:34.421Z,97846.22
2023-02-01T01:54:40.740Z,97851.44
2023-02-01T01:55:45.047Z,97865.06
2023-02-01T01:56:52.104Z,97836.00
2023-02-01T01:57:58.867Z,97810.28
2023-02-01T01:59:02.374Z,97834.09
2023-02-01T02:00:09.058Z,97845.09
2023-02-01T02:01:17.506Z,97839.13
2023-02-01T02:02:19.591Z,97837.31
2023-02-01T02:03:24.903Z,97835.44
2023-02-01T02:04:27.544Z,97842.25
2023-02-01T02:05:30.450Z,97838.94
2023-02-01T02:06:38.722Z,97801.06
2023-02-01T02:07:44.950Z,97832.78
2023-02-01T02:08:48.799Z,97847.50
2023-02-01T02:10:00.538Z,97844.91
2023-02-01T02:11:03.455Z,97849.25
2023-02-01T02:12:10.054Z,97852.63
2023-02-01T02:13:12.727Z,97864.69
2023-02-01T02:14:17.001Z,97858.59
2023-02-01T02:15:19.104Z,97861.19
2023-02-01T02:16:29.577Z,97862.94
2023-02-01T02:17:39.400Z,97862.84
2023-02-01T02:18:46.886Z,97882.50
2023-02-01T02:20:15.561Z,97867.97
2023-02-01T02:21:27.679Z,97864.59
2023-02-01T02:23:07.743Z,97875.69
2023-02-01T02:24:36.097Z,97874.16
2023-02-01T02:26:12.871Z,97883.41
2023-02-01T02:27:25.853Z,97879.91
2023-02-01T02:28:46.612Z,97875.63
2023-02-01T02:30:27.922Z,97866.16
2023-02-01T02:31:43.403Z,97873.94
2023-02-01T02:33:11.774Z,97873.94
2023-02-01T02:34:19.030Z,97867.16
2023-02-01T02:35:27.949Z,97855.94
2023-02-01T02:36:40.146Z,97877.28
2023-02-01T02:37:45.241Z,97874.69
2023-02-01T02:39:10.382Z,97886.75
2023-02-01T02:40:17.504Z,97864.47
2023-02-01T02:41:35.908Z,97881.59
2023-02-01T02:43:01.543Z,97879.91
2023-02-01T02:44:28.864Z,97885.28
2023-02-01T02:45:52.576Z,97876.81
2023-02-01T02:47:17.965Z,97879.59
2023-02-01T02:48:23.855Z,97880.41
2023-02-01T02:49:31.839Z,97882.06
2023-02-01T02:50:55.963Z,97872.59
2023-02-01T02:52:23.245Z,97874.44
2023-02-01T02:53:47.711Z,97884.72
2023-02-01T02:54:52.924Z,97879.59
2023-02-01T02:56:14.587Z,97892.25
2023-02-01T02:57:38.929Z,97880.94
2023-02-01T02:59:00.125Z,97888.56
2023-02-01T03:00:23.758Z,97884.16
2023-02-01T03:01:44.688Z,97877.16
2023-02-01T03:03:05.780Z,97889.94
2023-02-01T03:04:10.582Z,97890.75
2023-02-01T03:06:20.281Z,97882.97
2023-02-01T03:07:50.917Z,97889.75
2023-02-01T03:08:57.840Z,97892.44
2023-02-01T03:10:05.125Z,97892.31
2023-02-01T03:11:10.639Z,97881.22
2023-02-01T03:12:33.005Z,97890.56
2023-02-01T03:13:38.113Z,97894.06
2023-02-01T03:14:42.005Z,97873.88
2023-02-01T03:15:51.326Z,97892.59
2023-02-01T03:16:59.697Z,97890.03
2023-02-01T03:18:04.171Z,97902.91
2023-02-01T03:19:09.794Z,97895.19
2023-02-01T03:20:15.461Z,97902.81
2023-02-01T03:21:22.855Z,97901.06
2023-02-01T03:22:32.491Z,97893.31
2023-02-01T03:23:37.118Z,97901.91
2023-02-01T03:24:42.643Z,97896.66
2023-02-01T03:25:45.161Z,97900.16
2023-02-01T03:26:51.609Z,97898.41
2023-02-01T03:27:55.419Z,97892.44
2023-02-01T03:29:05.313Z,97896.66
2023-02-01T03:30:11.779Z,97897.59
2023-02-01T03:31:15.095Z,97903.56
2023-02-01T03:32:18.544Z,97906.84
2023-02-01T03:33:24.161Z,97899.13
2023-02-01T03:34:26.784Z,97897.38
2023-02-01T03:35:32.573Z,97896.44
2023-02-01T03:36:39.949Z,97902.34
2023-02-01T03:37:42.828Z,97900.59
2023-02-01T03:38:51.208Z,97904.72
2023-02-01T03:40:00.096Z,97900.59
2023-02-01T03:41:08.270Z,97898.84
2023-02-01T03:42:15.095Z,97906.56
2023-02-01T03:43:19.456Z,97902.34
2023-02-01T03:44:25.316Z,97904.00
2023-02-01T03:45:30.195Z,97904.91
2023-02-01T03:46:35.836Z,97908.41
2023-02-01T03:47:42.298Z,97906.56
2023-02-01T03:48:45.591Z,97904.72
2023-02-01T03:49:49.964Z,97914.19
2023-02-01T03:50:55.955Z,97915.94
2023-02-01T03:52:00.826Z,97906.47
2023-02-01T03:53:06.308Z,97908.97
2023-02-01T03:54:11.399Z,97919.16
2023-02-01T03:55:14.820Z,97911.44
2023-02-01T03:56:19.521Z,97903.81
2023-02-01T03:57:25.797Z,97903.81
2023-02-01T03:58:28.613Z,97902.13
2023-02-01T03:59:31.152Z,97903.88
2023-02-01T04:00:34.012Z,97909.84
2023-02-01T04:01:36.039Z,97895.44
2023-02-01T04:02:39.069Z,97902.34
2023-02-01T04:03:40.862Z,97900.78
2023-02-01T04:04:44.633Z,97906.94
2023-02-01T04:05:49.412Z,97895.00
2023-02-01T04:06:52.891Z,97902.09
2023-02-01T04:07:56.928Z,97898.69
2023-02-01T04:08:59.739Z,97896.13
2023-02-01T04:10:01.581Z,97895.19
2023-02-01T04:11:05.802Z,97899.34
2023-02-01T04:12:08.323Z,97886.34
2023-02-01T04:13:11.113Z,97891.50
2023-02-01T04:14:13.025Z,97891.59
2023-02-01T04:15:16.145Z,97884.72
2023-02-01T04:16:17.973Z,97884.78
2023-02-01T04:17:21.015Z,97892.50
2023-02-01T04:18:23.199Z,97893.31
2023-02-01T04:19:26.003Z,97892.44
2023-02-01T04:20:27.875Z,97895.00
2023-02-01T04:21:31.334Z,97900.78
2023-02-01T04:22:33.370Z,97892.97
2023-02-01T04:23:38.075Z,97871.44
2023-02-01T04:24:39.872Z,97894.50
2023-02-01T04:25:42.656Z,97893.59
2023-02-01T04:26:44.548Z,97891.84
2023-02-01T04:27:47.833Z,97882.47
2023-02-01T04:28:49.670Z,97901.25
2023-02-01T04:29:52.487Z,97896.09
2023-02-01T04:30:54.380Z,97889.25
2023-02-01T04:31:57.236Z,97895.34
2023-02-01T04:32:59.163Z,97898.72
2023-02-01T04:34:02.007Z,97893.69
2023-02-01T04:35:04.109Z,97885.03
2023-02-01T04:36:07.487Z,97885.97
2023-02-01T04:37:10.256Z,97897.09
2023-02-01T04:38:12.189Z,97902.34
2023-02-01T04:39:16.387Z,97904.09
2023-02-01T04:40:18.334Z,97901.59
2023-02-01T04:41:21.381Z,97908.59
2023-02-01T04:42:23.184Z,97905.09
2023-02-01T04:43:26.672Z,97906.94
2023-02-01T04:44:28.597Z,97906.13
2023-02-01T04:45:31.412Z,97900.16
2023-02-01T04:46:33.378Z,97907.88
2023-02-01T04:47:36.255Z,97907.06
2023-02-01T04:48:38.093Z,97904.38
2023-02-01T04:49:41.246Z,97907.06
2023-02-01T04:50:44.159Z,97898.31
2023-02-01T04:51:46.917Z,97912.09
2023-02-01T04:52:48.745Z,97908.59
2023-02-01T04:53:51.613Z,97910.25
2023-02-01T04:54:59.282Z,97913.75
2023-02-01T04:56:02.350Z,97900.06
2023-02-01T04:57:04.318Z,97899.94
2023-02-01T04:58:07.044Z,97916.22
2023-02-01T04:59:10.452Z,97907.59
2023-02-01T05:00:14.273Z,97913.47
2023-02-01T05:01:16.126Z,97901.53
2023-02-01T05:02:19.048Z,97902.34
2023-02-01T05:03:20.869Z,97902.34
2023-02-01T05:04:24.034Z,97906.56
2023-02-01T05:05:27.334Z,97904.00
2023-02-01T05:06:30.210Z,97901.41
2023-02-01T05:07:31.959Z,97904.00
2023-02-01T05:08:35.679Z,97898.84
2023-02-01T05:09:38.579Z,97903.06
2023-02-01T05:10:42.723Z,97908.22
2023-02-01T05:12:03.353Z,97895.44
2023-02-01T05:13:23.572Z,97903.16
2023-02-01T05:14:25.500Z,97901.81
2023-02-01T05:15:28.633Z,97903.44
2023-02-01T05:16:30.503Z,97910.34
2023-02-01T05:17:33.472Z,97902.63
2023-02-01T05:18:35.391Z,97904.28
2023-02-01T05:19:38.095Z,97908.69
2023-02-01T05:20:40.392Z,97904.47
2023-02-01T05:21:43.153Z,97913.84
2023-02-01T05:22:44.935Z,97905.31
2023-02-01T05:24:05.283Z,97907.06
2023-02-01T05:25:08.740Z,97904.66
2023-02-01T05:26:11.869Z,97897.84
2023-02-01T05:27:15.116Z,97901.25
2023-02-01T05:28:16.896Z,97905.59
2023-02-01T05:29:19.754Z,97906.50
2023-02-01T05:30:23.183Z,97906.50
2023-02-01T05:31:26.443Z,97896.28
2023-02-01T05:32:29.414Z,97903.19
2023-02-01T05:33:31.666Z,97901.53
2023-02-01T05:34:34.436Z,97897.38
2023-02-01T05:35:36.200Z,97899.25
2023-02-01T05:36:39.089Z,97891.63
2023-02-01T05:37:40.887Z,97902.00
2023-02-01T05:38:43.682Z,97909.91
2023-02-01T05:39:45.561Z,97910.91
2023-02-01T05:40:50.555Z,97905.88
2023-02-01T05:41:55.101Z,97907.63
2023-02-01T05:42:57.436Z,97903.28
2023-02-01T05:44:00.199Z,97909.25
2023-02-01T05:45:02.004Z,97907.44
2023-02-01T05:46:04.906Z,97907.44
2023-02-01T05:47:06.733Z,97909.00
2023-02-01T05:48:09.527Z,97910.63
2023-02-01T05:49:30.969Z,97908.06
2023-02-01T05:50:32.779Z,97914.84
2023-02-01T05:51:35.532Z,97909.72
2023-02-01T05:52:37.666Z,97907.88
2023-02-01T05:53:40.671Z,97911.28
2023-02-01T05:54:42.428Z,97905.31
2023-02-01T05:56:04.537Z,97911.38
2023-02-01T05:57:08.475Z,97906.25
2023-02-01T05:58:11.309Z,97911.38
2023-02-01T05:59:13.560Z,97920.84
2023-02-01T06:00:16.727Z,97914.78
2023-02-01T06:01:18.522Z,97913.03
2023-02-01T06:02:22.728Z,97912.09
2023-02-01T06:03:24.557Z,97901.81
2023-02-01T06:04:27.408Z,97906.84
2023-02-01T06:05:29.382Z,97906.03
2023-02-01T06:06:32.218Z,97917.97
2023-02-01T06:07:34.018Z,97907.63
2023-02-01T06:08:36.878Z,97904.09
2023-02-01T06:09:38.699Z,97908.44
2023-02-01T06:10:41.567Z,97906.69
2023-02-01T06:11:43.451Z,97901.66
2023-02-01T06:12:48.019Z,97901.66
2023-02-01T06:13:49.907Z,97904.22
2023-02-01T06:14:52.791Z,97895.56
2023-02-01T06:15:54.794Z,97905.84
2023-02-01T06:16:57.863Z,97905.84
2023-02-01T06:17:59.695Z,97898.84
2023-02-01T06:19:02.528Z,97902.19
2023-02-01T06:20:05.014Z,97899.59
2023-02-01T06:21:07.987Z,97907.13
2023-02-01T06:22:10.723Z,97903.63
2023-02-01T06:23:13.758Z,97907.88
2023-02-01T06:24:16.833Z,97903.56
2023-02-01T06:25:18.733Z,97906.03
2023-02-01T06:26:21.730Z,97913.63
2023-02-01T06:27:24.226Z,97913.56
2023-02-01T06:28:28.372Z,97921.19
2023-02-01T06:29:30.178Z,97918.63
2023-02-01T06:30:33.176Z,97911.72
2023-02-01T06:31:35.101Z,97909.03
2023-02-01T06:32:37.917Z,97915.00
2023-02-01T06:33:40.263Z,97914.13
2023-02-01T06:34:43.021Z,97916.69
2023-02-01T06:35:45.207Z,97919.16
2023-02-01T06:36:48.520Z,97915.75
2023-02-01T06:37:50.384Z,97919.06
2023-02-01T06:38:53.400Z,97919.97
2023-02-01T06:39:55.701Z,97915.66
2023-02-01T06:40:59.638Z,97915.66
2023-02-01T06:42:01.431Z,97922.44
2023-02-01T06:43:04.410Z,97912.97
2023-02-01T06:44:08.862Z,97910.41
2023-02-01T06:45:11.257Z,97912.97
2023-02-01T06:46:15.119Z,97913.78
2023-02-01T06:47:17.955Z,97909.50
2023-02-01T06:48:20.107Z,97910.31
2023-02-01T06:49:22.979Z,97911.16
2023-02-01T06:50:25.085Z,97909.41
2023-02-01T06:51:29.376Z,97897.25
2023-02-01T06:52:31.204Z,97901.47
2023-02-01T06:53:34.317Z,97898.88
2023-02-01T06:54:38.316Z,97901.38
2023-02-01T06:55:40.258Z,97897.16
2023-02-01T06:56:42.966Z,97895.31
2023-02-01T06:57:45.728Z,97900.28
2023-02-01T06:58:47.675Z,97898.44
2023-02-01T06:59:51.752Z,97900.91
2023-02-01T07:00:55.119Z,97899.06
2023-02-01T07:01:58.292Z,97900.72
2023-02-01T07:03:00.849Z,97892.88
2023-02-01T07:04:03.710Z,97885.06
2023-02-01T07:05:06.366Z,97884.88
2023-02-01T07:06:09.445Z,97878.78
2023-02-01T07:07:13.129Z,97887.34
2023-02-01T07:08:15.373Z,97882.81
2023-02-01T07:09:18.240Z,97881.81
2023-02-01T07:10:20.282Z,97879.97
2023-02-01T07:11:24.079Z,97885.94
2023-02-01T07:12:25.846Z,97878.22
2023-02-01T07:13:30.941Z,97879.75
2023-02-01T07:14:32.961Z,97883.06
2023-02-01T07:15:37.044Z,97881.22
2023-02-01T07:16:39.059Z,97891.44
2023-02-01T07:17:41.820Z,97884.53
2023-02-01T07:18:43.696Z,97884.31
2023-02-01T07:19:46.440Z,97885.97
2023-02-01T07:21:07.730Z,97881.66
2023-02-01T07:22:10.133Z,97890.94
2023-02-01T07:23:12.902Z,97891.75
2023-02-01T07:24:15.760Z,97880.50
2023-02-01T07:25:18.792Z,97883.91
2023-02-01T07:26:21.899Z,97885.59
2023-02-01T07:27:26.292Z,97886.41
2023-02-01T07:28:31.289Z,97885.59
2023-02-01T07:29:36.544Z,97888.06
2023-02-01T07:30:39.759Z,97881.03
2023-02-01T07:31:42.600Z,97879.41
2023-02-01T07:32:44.761Z,97886.31
2023-02-01T07:33:47.866Z,97886.19
2023-02-01T07:34:49.800Z,97895.69
2023-02-01T07:35:52.834Z,97890.53
2023-02-01T07:36:54.705Z,97898.25
2023-02-01T07:37:59.365Z,97890.53
2023-02-01T07:39:02.155Z,97888.78
2023-02-01T07:40:04.798Z,97887.13
2023-02-01T07:41:08.999Z,97893.94
2023-02-01T07:42:11.792Z,97881.03
2023-02-01T07:43:13.666Z,97892.16
2023-02-01T07:44:17.840Z,97891.34
2023-02-01T07:45:21.774Z,97887.94
2023-02-01T07:46:26.079Z,97887.94
2023-02-01T07:47:28.922Z,97885.38
2023-02-01T07:48:32.800Z,97890.53
2023-02-01T07:49:34.616Z,97887.00
2023-02-01T07:50:37.422Z,97886.19
2023-02-01T07:51:40.215Z,97889.59
2023-02-01T07:52:42.067Z,97885.38
2023-02-01T07:53:45.429Z,97879.41
2023-02-01T07:54:47.211Z,97884.56
2023-02-01T07:55:49.951Z,97886.31
2023-02-01T07:56:52.794Z,97890.63
2023-02-01T07:57:58.079Z,97889.00
2023-02-01T07:59:01.680Z,97886.50
2023-02-01T08:00:23.487Z,97888.25
2023-02-01T08:01:29.330Z,97893.50
2023-02-01T08:02:32.382Z,97890.09
2023-02-01T08:03:55.288Z,97879.91
2023-02-01T08:04:58.276Z,97885.88
2023-02-01T08:06:00.499Z,97879.81
2023-02-01T08:07:03.218Z,97883.09
2023-02-01T08:08:25.230Z,97876.28
2023-02-01T08:09:28.583Z,97885.66
2023-02-01T08:10:30.646Z,97885.59
2023-02-01T08:11:33.800Z,97883.72
2023-02-01T08:12:35.631Z,97887.94
2023-02-01T08:13:38.412Z,97888.78
2023-02-01T08:14:41.896Z,97883.53
2023-02-01T08:15:43.841Z,97878.38
2023-02-01T08:16:47.978Z,97875.81
2023-02-01T08:17:50.801Z,97883.53
2023-02-01T08:18:54.328Z,97880.97
2023-02-01T08:19:57.158Z,97887.75
2023-02-01T08:21:06.071Z,97885.19
2023-02-01T08:22:08.856Z,97881.69
2023-02-01T08:23:10.642Z,97885.91
2023-02-01T08:24:13.729Z,97888.41
2023-02-01T08:25:15.595Z,97888.41
2023-02-01T08:26:20.623Z,97889.94
2023-02-01T08:27:23.150Z,97874.47
2023-02-01T08:28:26.056Z,97879.63
2023-02-01T08:29:29.056Z,97882.91
2023-02-01T08:30:31.989Z,97882.00
2023-02-01T08:31:34.851Z,97888.81
2023-02-01T08:32:38.011Z,97881.91
2023-02-01T08:33:41.237Z,97887.06
2023-02-01T08:34:43.055Z,97882.72
2023-02-01T08:35:45.764Z,97886.13
2023-02-01T08:36:47.757Z,97886.13
2023-02-01T08:37:52.006Z,97882.72
2023-02-01T08:38:54.778Z,97882.72
2023-02-01T08:39:56.657Z,97877.56
2023-02-01T08:40:59.551Z,97879.22
2023-02-01T08:42:20.015Z,97880.97
2023-02-01T08:43:22.929Z,97883.56
2023-02-01T08:44:24.741Z,97886.84
2023-02-01T08:45:29.934Z,97873.13
2023-02-01T08:46:33.071Z,97875.53
2023-02-01T08:47:35.805Z,97874.47
2023-02-01T08:48:41.327Z,97870.88
2023-02-01T08:49:43.217Z,97881.84
2023-02-01T08:50:45.998Z,97882.44
2023-02-01T08:51:48.915Z,97878.84
2023-02-01T08:52:52.157Z,97877.81
2023-02-01T08:53:54.985Z,97888.94
2023-02-01T08:54:56.800Z,97883.69
2023-02-01T08:56:00.497Z,97882.75
2023-02-01T08:57:03.696Z,97879.25
2023-02-01T08:58:06.537Z,97882.66
2023-02-01T08:59:09.587Z,97878.44
2023-02-01T09:00:15.253Z,97879.25
2023-02-01T09:01:19.344Z,97880.19
2023-02-01T09:02:21.597Z,97880.19
2023-02-01T09:03:24.629Z,97875.97
2023-02-01T09:04:28.009Z,97881.00
2023-02-01T09:05:44.002Z,97880.91
2023-02-01T09:06:51.377Z,97875.75
2023-02-01T09:07:54.145Z,97879.06
2023-02-01T09:08:57.839Z,97877.94
2023-02-01T09:10:01.930Z,97880.28
2023-02-01T09:11:06.500Z,97874.00
2023-02-01T09:12:09.400Z,97877.94
2023-02-01T09:13:12.195Z,97878.56
2023-02-01T09:14:14.000Z,97875.75
2023-02-01T09:15:16.874Z,97867.94
2023-02-01T09:16:20.134Z,97884.94
2023-02-01T09:17:21.985Z,97866.75
2023-02-01T09:18:24.999Z,97870.91
2023-02-01T09:19:29.091Z,97878.53
2023-02-01T09:20:31.861Z,97879.34
2023-02-01T09:21:34.742Z,97880.09
2023-02-01T09:22:37.592Z,97873.88
2023-02-01T09:23:40.343Z,97867.72
2023-02-01T09:24:42.526Z,97875.34
2023-02-01T09:25:45.360Z,97872.75
2023-02-01T09:26:48.274Z,97880.38
2023-02-01T09:27:51.111Z,97872.63
2023-02-01T09:28:52.944Z,97870.78
2023-02-01T09:29:56.431Z,97870.78
2023-02-01T09:31:00.554Z,97875.03
2023-02-01T09:32:04.457Z,97875.72
2023-02-01T09:33:07.533Z,97872.94
2023-02-01T09:34:10.929Z,97867.78
2023-02-01T09:35:15.376Z,97865.78
2023-02-01T09:36:20.604Z,97859.63
2023-02-01T09:37:22.548Z,97862.91
2023-02-01T09:38:26.620Z,97864.47
2023-02-01T09:39:30.923Z,97865.16
2023-02-01T09:40:35.823Z,97859.81
2023-02-01T09:41:44.352Z,97864.75
2023-02-01T09:43:01.859Z,97862.78
2023-02-01T09:44:09.779Z,97862.47
2023-02-01T09:45:18.994Z,97857.09
2023-02-01T09:46:24.655Z,97851.69
2023-02-01T09:47:28.608Z,97852.31
2023-02-01T09:48:36.221Z,97856.41
2023-02-01T09:49:46.094Z,97847.66
2023-02-01T09:50:54.400Z,97850.84
2023-02-01T09:51:57.056Z,97843.78
2023-02-01T09:53:03.289Z,97843.59
2023-02-01T09:54:09.193Z,97852.88
2023-02-01T09:55:17.512Z,97844.28
2023-02-01T09:56:24.088Z,97843.25
2023-02-01T09:57:29.769Z,97830.31
2023-02-01T09:58:36.056Z,97843.03
2023-02-01T09:59:41.756Z,97836.94
2023-02-01T10:00:50.440Z,97843.72
2023-02-01T10:01:52.578Z,97827.41
2023-02-01T10:02:56.901Z,97837.53
2023-02-01T10:04:04.636Z,97828.16
2023-02-01T10:05:12.347Z,97832.16
2023-02-01T10:06:35.495Z,97830.03
2023-02-01T10:07:44.177Z,97841.00
2023-02-01T10:09:06.529Z,97839.00
2023-02-01T10:10:13.611Z,97837.13
2023-02-01T10:11:23.833Z,97834.34
2023-02-01T10:13:04.305Z,97830.81
2023-02-01T10:14:12.282Z,97818.00
2023-02-01T10:15:30.930Z,97835.16
2023-02-01T10:16:40.730Z,97831.63
2023-02-01T10:17:52.823Z,97834.22
2023-02-01T10:19:07.243Z,97833.41
2023-02-01T10:20:15.478Z,97828.84
2023-02-01T10:21:39.915Z,97829.66
2023-02-01T10:24:20.144Z,97822.72
2023-02-01T10:25:26.033Z,97826.94
2023-02-01T10:26:32.334Z,97827.91
2023-02-01T10:27:36.771Z,97832.13
2023-02-01T10:28:39.726Z,97832.84
2023-02-01T10:29:44.272Z,97834.59
2023-02-01T10:30:49.703Z,97831.09
2023-02-01T10:31:52.764Z,97832.84
2023-02-01T10:32:58.327Z,97821.78
2023-02-01T10:34:03.165Z,97826.94
2023-02-01T10:35:14.912Z,97823.66
2023-02-01T10:36:22.276Z,97828.09
2023-02-01T10:37:29.903Z,97821.53
2023-02-01T10:38:34.194Z,97822.34
2023-02-01T10:39:37.934Z,97821.63
2023-02-01T10:40:40.776Z,97822.44
2023-02-01T10:41:43.955Z,97825.84
2023-02-01T10:42:47.721Z,97830.81
2023-02-01T10:43:53.032Z,97818.59
2023-02-01T10:44:56.993Z,97822.84
2023-02-01T10:45:59.904Z,97816.72
2023-02-01T10:47:01.984Z,97822.72
2023-02-01T10:48:05.270Z,97816.72
2023-02-01T10:49:15.129Z,97816.72
2023-02-01T10:50:23.847Z,97816.84
2023-02-01T10:51:32.008Z,97817.75
2023-02-01T10:52:40.940Z,97812.84
2023-02-01T10:53:48.309Z,97807.69
2023-02-01T10:54:51.066Z,97817.19
2023-02-01T10:55:53.687Z,97808.72
2023-02-01T10:56:56.655Z,97813.06
2023-02-01T10:57:59.587Z,97813.06
2023-02-01T10:59:06.746Z,97804.59
2023-02-01T11:00:21.729Z,97813.28
2023-02-01T11:01:30.197Z,97814.22
2023-02-01T11:02:35.164Z,97814.44
2023-02-01T11:03:41.302Z,97817.97
2023-02-01T11:04:44.755Z,97811.88
2023-02-01T11:05:50.726Z,97814.22
2023-02-01T11:06:56.940Z,97809.78
2023-02-01T11:08:01.360Z,97809.53
2023-02-01T11:09:18.142Z,97820.47
2023-02-01T11:10:37.746Z,97810.00
2023-02-01T11:11:57.053Z,97810.97
2023-02-01T11:12:59.976Z,97809.19
2023-02-01T11:14:12.573Z,97808.25
2023-02-01T11:15:20.915Z,97802.25
2023-02-01T11:16:31.139Z,97798.84
2023-02-01T11:17:37.326Z,97812.03
2023-02-01T11:18:39.439Z,97810.59
2023-02-01T11:19:46.187Z,97809.28
2023-02-01T11:20:50.425Z,97817.81
2023-02-01T11:21:54.165Z,97807.44
2023-02-01T11:22:58.303Z,97813.25
2023-02-01T11:24:04.685Z,97811.44
2023-02-01T11:25:11.740Z,97813.59
2023-02-01T11:26:16.968Z,97815.81
2023-02-01T11:27:27.265Z,97823.88
2023-02-01T11:28:33.075Z,97806.13
2023-02-01T11:29:39.679Z,97811.50
2023-02-01T11:30:44.131Z,97808.19
2023-02-01T11:31:50.495Z,97806.06
2023-02-01T11:32:52.562Z,97806.38
2023-02-01T11:33:58.199Z,97790.50
2023-02-01T11:35:04.995Z,97809.00
2023-02-01T11:36:09.167Z,97810.25
2023-02-01T11:37:18.367Z,97797.75
2023-02-01T11:38:23.219Z,97804.16
2023-02-01T11:39:30.117Z,97805.19
2023-02-01T11:40:36.776Z,97807.97
2023-02-01T11:41:46.588Z,97797.75
2023-02-01T11:42:55.610Z,97801.28
2023-02-01T11:43:59.894Z,97805.50
2023-02-01T11:45:25.887Z,97793.44
2023-02-01T11:46:31.278Z,97797.75
2023-02-01T11:47:41.333Z,97783.13
2023-02-01T11:48:44.665Z,97790.75
2023-02-01T11:49:47.340Z,97790.75
2023-02-01T11:50:58.459Z,97790.66
2023-02-01T11:52:12.643Z,97796.63
2023-02-01T11:53:37.829Z,97789.59
2023-02-01T11:54:59.530Z,97777.53
2023-02-01T11:56:09.504Z,97779.19
2023-02-01T11:57:21.385Z,97779.91
2023-02-01T11:58:55.105Z,97775.25
2023-02-01T12:00:09.647Z,97775.16
2023-02-01T12:01:26.621Z,97766.38
2023-02-01T12:02:46.845Z,97766.16
2023-02-01T12:04:03.415Z,97768.66
2023-02-01T12:05:20.263Z,97760.69
2023-02-01T12:06:30.062Z,97750.16
2023-02-01T12:07:44.738Z,97749.00
2023-02-01T12:09:18.712Z,97752.28
2023-02-01T12:10:32.582Z,97754.66
2023-02-01T12:11:43.866Z,97745.06
2023-02-01T12:12:53.176Z,97750.00
2023-02-01T12:14:04.019Z,97743.59
2023-02-01T12:15:37.509Z,97738.19
2023-02-01T12:16:48.245Z,97739.63
2023-02-01T12:18:35.575Z,97738.38
2023-02-01T12:19:59.395Z,97735.66
2023-02-01T12:21:24.078Z,97732.75
2023-02-01T12:22:38.046Z,97723.16
2023-02-01T12:23:54.979Z,97729.75
2023-02-01T12:25:21.402Z,97728.56
2023-02-01T12:26:52.672Z,97724.00
2023-02-01T12:28:29.364Z,97716.16
2023-02-01T12:29:50.906Z,97726.25
2023-02-01T12:31:25.074Z,97725.31
2023-02-01T12:32:38.314Z,97716.44
2023-02-01T12:33:51.958Z,97722.06
2023-02-01T12:35:05.117Z,97713.16
2023-02-01T12:36:12.850Z,97719.66
2023-02-01T12:37:25.462Z,97711.56
2023-02-01T12:38:37.669Z,97715.91
2023-02-01T12:39:42.993Z,97720.13
2023-02-01T12:40:54.630Z,97719.06
2023-02-01T12:42:04.429Z,97718.13
2023-02-01T12:43:11.518Z,97718.94
2023-02-01T12:44:25.783Z,97722.38
2023-02-01T12:45:33.762Z,97715.53
2023-02-01T12:46:40.383Z,97714.97
2023-02-01T12:47:46.885Z,97716.94
2023-02-01T12:48:56.224Z,97716.25
2023-02-01T12:50:02.554Z,97712.09
2023-02-01T12:51:09.315Z,97714.81
2023-02-01T12:52:15.658Z,97724.53
2023-02-01T12:53:24.877Z,97721.34
2023-02-01T12:54:39.227Z,97719.13
2023-02-01T12:55:46.824Z,97714.19
2023-02-01T12:56:56.156Z,97715.31
2023-02-01T12:58:07.328Z,97713.06
2023-02-01T12:59:18.374Z,97711.69
2023-02-01T13:00:26.241Z,97713.78
2023-02-01T13:01:35.107Z,97707.16